Time;durP1;ratioP1;P1;durP2;ratioP2;P2;SDS_P1;SDS_P2;PMS_P1;PMS_P2;Temp;Humidity;BMP_temperature;BMP_pressure;BME280_temperature;BME280_humidity;BME280_pressure;Samples;Min_cycle;Max_cycle;Signal;HPM_P1;HPM_P2
2022/12/16 00:01:59;;;;;;;;;1.00;1.00;;;;;5.55;100.00;97742.94;5030126;28;45516;-78
2022/12/16 00:04:25;;;;;;;;;0.00;0.00;;;;;5.51;100.00;97756.22;4999045;28;45555;-78
2022/12/16 00:06:50;;;;;;;;;2.00;1.00;;;;;5.46;100.00;97756.41;5007525;28;46483;-78
2022/12/16 00:09:16;;;;;;;;;1.00;1.00;;;;;5.44;100.00;97746.91;4999162;28;45528;-78
2022/12/16 00:11:41;;;;;;;;;1.00;1.00;;;;;5.43;100.00;97761.75;5009422;28;45490;-78
2022/12/16 00:14:06;;;;;;;;;0.50;0.50;;;;;5.39;100.00;97757.56;5005371;28;45475;-78
2022/12/16 00:16:32;;;;;;;;;1.00;1.00;;;;;5.36;100.00;97762.06;5028530;28;47142;-79
2022/12/16 00:18:57;;;;;;;;;0.00;0.00;;;;;5.33;100.00;97755.22;5033573;28;46047;-78
2022/12/16 00:21:27;;;;;;;;;1.00;1.00;;;;;5.30;100.00;97767.53;5004817;28;45850;-79
2022/12/16 00:23:53;;;;;;;;;2.25;1.25;;;;;5.27;100.00;97763.28;5007061;28;45416;-79
2022/12/16 00:26:18;;;;;;;;;1.00;1.00;;;;;5.25;100.00;97768.56;5007482;28;45539;-78
2022/12/16 00:28:44;;;;;;;;;1.00;1.00;;;;;5.22;100.00;97763.47;5003627;28;45444;-79
2022/12/16 00:31:09;;;;;;;;;2.75;2.00;;;;;5.23;100.00;97766.94;5009451;28;45603;-79
2022/12/16 00:33:37;;;;;;;;;1.75;1.00;;;;;5.22;100.00;97771.31;5006366;28;45406;-79
2022/12/16 00:36:02;;;;;;;;;0.50;0.50;;;;;5.21;100.00;97766.13;4997470;28;45535;-79
2022/12/16 00:38:28;;;;;;;;;1.25;1.25;;;;;5.17;100.00;97775.88;5005026;28;45434;-79
2022/12/16 00:40:53;;;;;;;;;0.00;0.00;;;;;5.15;100.00;97776.84;5003850;28;45397;-79
2022/12/16 00:43:20;;;;;;;;;1.00;1.00;;;;;5.13;100.00;97776.06;5027203;28;45448;-79
2022/12/16 00:45:46;;;;;;;;;2.00;1.00;;;;;5.10;100.00;97784.88;5008111;28;46662;-79
2022/12/16 00:48:12;;;;;;;;;1.00;1.00;;;;;5.08;100.00;97784.06;5007497;28;45442;-79
2022/12/16 00:50:37;;;;;;;;;1.00;1.00;;;;;5.06;100.00;97798.94;5000512;28;45397;-79
2022/12/16 00:53:03;;;;;;;;;0.75;0.00;;;;;5.06;100.00;97785.03;5009324;28;45416;-79
2022/12/16 00:55:29;;;;;;;;;1.00;1.00;;;;;5.04;100.00;97790.31;5006118;28;45355;-79
2022/12/16 00:57:54;;;;;;;;;1.00;1.00;;;;;5.02;100.00;97800.00;5006794;28;45373;-79
2022/12/16 01:00:21;;;;;;;;;1.00;1.00;;;;;5.03;100.00;97803.44;5015837;28;45868;-79
2022/12/16 01:02:47;;;;;;;;;0.75;0.75;;;;;5.03;100.00;97803.44;5003358;28;45651;-80
2022/12/16 01:05:15;;;;;;;;;0.50;0.50;;;;;5.00;100.00;97807.03;5002776;28;45556;-80
2022/12/16 01:07:41;;;;;;;;;0.50;0.50;;;;;5.00;100.00;97809.66;5000218;28;45407;-79
2022/12/16 01:10:08;;;;;;;;;1.00;1.00;;;;;4.99;100.00;97818.41;5007633;28;45348;-79
2022/12/16 01:12:34;;;;;;;;;1.00;1.00;;;;;4.99;100.00;97826.22;5008770;28;45457;-78
2022/12/16 01:15:00;;;;;;;;;1.00;1.00;;;;;4.99;100.00;97831.44;5010827;28;45657;-79
2022/12/16 01:17:25;;;;;;;;;1.00;1.00;;;;;4.98;100.00;97832.34;5010696;28;45613;-80
2022/12/16 01:19:52;;;;;;;;;0.50;0.00;;;;;5.00;100.00;97835.78;5009299;28;45413;-79
2022/12/16 01:22:17;;;;;;;;;1.25;1.25;;;;;5.02;100.00;97840.94;5004226;28;45439;-79
2022/12/16 01:24:43;;;;;;;;;3.00;0.50;;;;;5.02;100.00;97843.53;5029566;28;46659;-79
2022/12/16 01:27:09;;;;;;;;;1.00;1.00;;;;;5.01;100.00;97844.44;5004998;28;45429;-79
2022/12/16 01:29:35;;;;;;;;;1.00;1.00;;;;;5.00;100.00;97846.22;5004592;28;45475;-79
2022/12/16 01:32:00;;;;;;;;;0.00;0.00;;;;;4.99;100.00;97857.56;5012152;28;45559;-79
2022/12/16 01:34:25;;;;;;;;;0.75;0.00;;;;;4.98;100.00;97853.25;5015283;28;45612;-79
2022/12/16 01:36:51;;;;;;;;;1.00;1.00;;;;;4.99;100.00;97865.41;5005484;28;45413;-78
2022/12/16 01:39:16;;;;;;;;;1.00;1.00;;;;;4.98;100.00;97871.53;5033752;28;45870;-79
2022/12/16 01:41:42;;;;;;;;;0.50;0.50;;;;;4.97;100.00;97880.28;5007000;28;45456;-79
2022/12/16 01:44:15;;;;;;;;;3.00;1.00;;;;;4.97;100.00;97888.13;5004525;28;45420;-78
2022/12/16 01:46:42;;;;;;;;;0.50;0.50;;;;;4.93;100.00;97883.06;5006986;28;45488;-80
2022/12/16 01:49:32;;;;;;;;;1.75;1.75;;;;;4.93;100.00;97894.34;5016184;28;45520;-80
2022/12/16 01:52:03;;;;;;;;;0.00;0.00;;;;;4.91;100.00;97891.78;5011498;28;45536;-79
2022/12/16 01:54:36;;;;;;;;;1.00;1.00;;;;;4.89;100.00;97892.75;5014816;28;45683;-79
2022/12/16 01:57:08;;;;;;;;;0.50;0.50;;;;;4.87;100.00;97898.03;5011686;28;45354;-79
2022/12/16 01:59:38;;;;;;;;;1.75;1.75;;;;;4.86;100.00;97898.94;5014569;28;45504;-79
2022/12/16 02:02:04;;;;;;;;;0.00;0.00;;;;;4.85;100.00;97894.66;5011844;28;45536;-78
2022/12/16 02:04:29;;;;;;;;;3.00;1.00;;;;;4.85;100.00;97906.84;5004070;28;46630;-79
2022/12/16 02:06:56;;;;;;;;;0.25;0.25;;;;;4.85;100.00;97907.72;5008654;28;45477;-79
2022/12/16 02:09:21;;;;;;;;;1.50;1.50;;;;;4.82;100.00;97910.44;5014889;28;45492;-79
2022/12/16 02:12:04;;;;;;;;;0.25;0.00;;;;;4.80;100.00;97914.00;5009669;28;45377;-78
2022/12/16 02:14:53;;;;;;;;;1.00;0.00;;;;;4.79;100.00;97922.72;5012725;28;46532;-79
2022/12/16 02:17:43;;;;;;;;;0.00;0.00;;;;;4.79;100.00;97925.34;4996911;28;45843;-79
2022/12/16 02:20:39;;;;;;;;;0.25;0.25;;;;;4.80;100.00;97929.66;5003717;28;45470;-79
2022/12/16 02:23:32;;;;;;;;;1.25;0.00;;;;;4.79;99.87;97927.94;5011975;28;45439;-79
2022/12/16 02:25:57;;;;;;;;;0.00;0.00;;;;;4.77;100.00;97930.63;5000507;28;45456;-80
2022/12/16 02:28:47;;;;;;;;;0.00;0.00;;;;;4.77;100.00;97934.97;5011093;28;45336;-79
2022/12/16 02:31:23;;;;;;;;;1.00;1.00;;;;;4.75;100.00;97948.09;5005360;28;45415;-79
2022/12/16 02:34:09;;;;;;;;;0.50;0.50;;;;;4.73;100.00;97949.03;5002143;28;45485;-79
2022/12/16 02:36:59;;;;;;;;;0.00;0.00;;;;;4.70;100.00;97938.72;5010875;28;45558;-79
2022/12/16 02:39:34;;;;;;;;;2.00;0.75;;;;;4.71;100.00;97945.63;5013618;28;45461;-79
2022/12/16 02:42:06;;;;;;;;;0.00;0.00;;;;;4.71;100.00;97949.09;5003596;28;45728;-79
2022/12/16 02:44:50;;;;;;;;;1.25;1.00;;;;;4.70;100.00;97946.53;5029505;28;45386;-79
2022/12/16 02:47:16;;;;;;;;;0.00;0.00;;;;;4.68;100.00;97956.22;5041995;28;46564;-79
2022/12/16 02:49:46;;;;;;;;;2.75;0.00;;;;;4.68;100.00;97953.59;5015438;28;45514;-79
2022/12/16 02:52:13;;;;;;;;;0.00;0.00;;;;;4.68;100.00;97951.00;5009678;28;45418;-79
2022/12/16 02:54:39;;;;;;;;;1.00;1.00;;;;;4.68;100.00;97956.22;5007454;28;45425;-79
2022/12/16 02:57:20;;;;;;;;;0.00;0.00;;;;;4.68;100.00;97961.44;5014339;28;46278;-79
2022/12/16 03:00:04;;;;;;;;;2.00;1.00;;;;;4.66;100.00;97952.78;5003815;28;45340;-79
2022/12/16 03:02:38;;;;;;;;;1.00;1.00;;;;;4.67;100.00;97959.72;5011877;28;45448;-80
2022/12/16 03:05:17;;;;;;;;;0.25;0.25;;;;;4.65;100.00;97962.38;5047616;28;45369;-80
2022/12/16 03:07:44;;;;;;;;;1.00;1.00;;;;;4.66;100.00;97956.25;5004167;28;47338;-80
2022/12/16 03:10:16;;;;;;;;;0.25;0.25;;;;;4.68;100.00;97961.44;4998132;28;45518;-79
2022/12/16 03:12:44;;;;;;;;;1.00;1.00;;;;;4.70;100.00;97960.44;5009393;28;45346;-79
2022/12/16 03:15:12;;;;;;;;;0.00;0.00;;;;;4.72;100.00;97960.38;5009129;28;45563;-79
2022/12/16 03:17:38;;;;;;;;;0.00;0.00;;;;;4.74;100.00;97966.41;5006345;28;45551;-79
2022/12/16 03:20:20;;;;;;;;;0.00;0.00;;;;;4.75;100.00;97968.97;5014471;28;45380;-79
2022/12/16 03:22:51;;;;;;;;;1.00;1.00;;;;;4.75;100.00;97963.75;5012985;28;45373;-78
2022/12/16 03:25:19;;;;;;;;;0.00;0.00;;;;;4.77;100.00;97971.53;5014243;28;45527;-79
2022/12/16 03:27:54;;;;;;;;;0.00;0.00;;;;;4.75;100.00;97971.59;5013587;28;45510;-79
2022/12/16 03:30:27;;;;;;;;;1.00;1.00;;;;;4.73;100.00;97975.16;5014895;28;45399;-79
2022/12/16 03:33:01;;;;;;;;;0.00;0.00;;;;;4.69;100.00;97974.41;5008520;28;45539;-79
2022/12/16 03:35:32;;;;;;;;;0.00;0.00;;;;;4.67;100.00;97972.78;5012510;28;45415;-79
2022/12/16 03:38:00;;;;;;;;;0.00;0.00;;;;;4.64;100.00;97972.88;5041216;28;47702;-79
2022/12/16 03:40:27;;;;;;;;;0.00;0.00;;;;;4.63;100.00;97973.78;5013016;28;45409;-79
2022/12/16 03:42:54;;;;;;;;;0.00;0.00;;;;;4.62;100.00;97977.28;5003157;28;45594;-79
2022/12/16 03:45:26;;;;;;;;;0.75;0.00;;;;;4.61;100.00;97988.63;5004924;28;45446;-79
2022/12/16 03:47:55;;;;;;;;;0.00;0.00;;;;;4.60;100.00;97992.16;5010870;28;46352;-80
2022/12/16 03:50:33;;;;;;;;;1.50;1.00;;;;;4.59;100.00;97987.84;5014296;28;45442;-81
2022/12/16 03:52:59;;;;;;;;;0.00;0.00;;;;;4.59;100.00;97987.84;5009285;28;45349;-80
2022/12/16 03:55:24;;;;;;;;;1.50;0.25;;;;;4.56;100.00;97997.47;5014702;28;45271;-80
2022/12/16 03:57:50;;;;;;;;;0.50;0.00;;;;;4.55;100.00;97998.38;5006752;28;45559;-80
2022/12/16 04:00:16;;;;;;;;;1.00;1.00;;;;;4.53;100.00;98002.78;5006931;28;45307;-79
2022/12/16 04:02:42;;;;;;;;;0.75;0.00;;;;;4.50;100.00;98002.91;5013984;28;45476;-79
2022/12/16 04:05:08;;;;;;;;;0.75;0.00;;;;;4.49;100.00;98001.22;5005694;28;45495;-79
2022/12/16 04:07:34;;;;;;;;;1.00;0.00;;;;;4.48;100.00;98004.72;5014011;28;45527;-80
2022/12/16 04:09:59;;;;;;;;;0.25;0.25;;;;;4.47;100.00;98004.78;5013776;28;45468;-79
2022/12/16 04:26:19;;;;;;;;;0.50;0.25;;;;;4.48;100.00;98006.47;4998130;28;45413;-78
2022/12/16 04:28:45;;;;;;;;;0.00;0.00;;;;;4.48;100.00;98007.34;5010880;28;45555;-79
2022/12/16 04:31:10;;;;;;;;;0.00;0.00;;;;;4.48;100.00;98014.31;5009250;28;45459;-79
